Airfield :
LOGIN :

Register | Disclaimer

   EN    FR    IT 

 










Legend :    VFR   Marginal VFR   IFR   Intensive IFR   Very Intensive IFR
Visi :
Ceiling :
>= 8 km
>= 3000ft
5 to 8 km
1000 to 3000 ft
1500m to 5 km
500 to 1000 ft
800 to 1500m
200 to 500 ft
< 800m
< 200 ft
Symbols :   Thunderstorms  Fog  Heavy snow  Heavy precipitations  Wind > 20 kt
SIGMETs :     Misc.  Thunderstorms  Icing  Turbulence  Mountain Waves  Volcanic Ashes







- Airport Elevation : 37 ft
- IATA code : HLY


EGOV - RAF Valley

CURRENT METAR :
  • 180950Z 17035G46KT 5000 RA BKN012 OVC020 10/09 Q0996 GRN TEMPO 3500 +RA YLO1

EXPIRED METARs :
  • 180925Z 17034G44KT 4000 RA BKN012 OVC018 10/09 Q0996 GRN TEMPO 3500 +RA YLO1
  • 180850Z 17037G49KT 9999 -RA BKN015 OVC028 11/09 Q0996 RERA WHT TEMPO 3500 +RA SCT008 YLO1
  • 180750Z 17043G55KT 5000 RA BKN017 OVC026 10/09 Q0996 WHT TEMPO 3500 +RA SCT008 YLO1

TAF TAF EGOV
Valid from the 18 at 09:00 until the 18 at 18:00 UTC


180738Z 1809/1818 16040G52KT 7000 RA SCT018 BKN028
BECMG 1809/1812 18025G35KT
TEMPO 1809/1812 3500 +RA SCT008
BECMG 1810/1812 9999 -RA FEW010 BKN040
TEMPO 1812/1818 7000 SHRA SCT010
BECMG 1813/1815 17020KT
No reported NOTAMs for that airfield.
2 SIGMETs reported for the London FIR (EGTT) :
 
Severe mountain waves
EGTT SIGMET 04 VALID 180700/181100 EGRR
EGTT LONDON FIR SEV MTW FCST WI N5220 W00530 - N5500 W00530 - N5500 W00015 - N5024 W00255 - N4959 W00548 - N5220 W00530 - N5220 W00530 FL030/250 STNR NC=
Severe turbulence
EGTT SIGMET 03 VALID 180700/181100 EGRR
EGTT LONDON FIR SEV TURB FCST WI N4850 W00800 - N5100 W00800 - N5220 W00530 - N5500 W00530 - N5500 W00247 - N5101 W00311 - N4958 W00208 - N4850 W00800 SFC/FL060 MOV E 10KT NC=



MET'MAP, your aeronautical weather chart ! - Copyright ORBIFLY December 2007 - Disclaimer

ORBIFLY MET'MAP TEAM :

Programming & Development : Alexandra Zaïnal
Concept & Development : Baudouin d'Aumeries
Co-Development & Prog : Marc-Olivier Méhu
Technical & hardware support : Manuel Goepfert

Contact : metmap@orbifly.com




SOURCES & CREDITS :

   NOAA